sensor_id;sensor_type;location;lat;lon;timestamp;temperature;humidity
4934;DHT22;2482;49.154;8.254;2022-10-23T00:01:51;11.40;99.90
4934;DHT22;2482;49.154;8.254;2022-10-23T00:04:22;11.30;99.90
4934;DHT22;2482;49.154;8.254;2022-10-23T00:06:52;11.30;99.90
4934;DHT22;2482;49.154;8.254;2022-10-23T00:09:22;11.30;99.90
4934;DHT22;2482;49.154;8.254;2022-10-23T00:11:51;11.40;99.90
4934;DHT22;2482;49.154;8.254;2022-10-23T00:14:25;11.40;99.90
4934;DHT22;2482;49.154;8.254;2022-10-23T00:16:54;11.40;99.90
4934;DHT22;2482;49.154;8.254;2022-10-23T00:19:23;11.40;99.90
4934;DHT22;2482;49.154;8.254;2022-10-23T00:21:50;11.50;99.90
4934;DHT22;2482;49.154;8.254;2022-10-23T00:24:17;11.50;99.90
4934;DHT22;2482;49.154;8.254;2022-10-23T00:26:44;11.40;99.90
4934;DHT22;2482;49.154;8.254;2022-10-23T00:29:11;11.30;99.90
4934;DHT22;2482;49.154;8.254;2022-10-23T00:31:42;11.20;99.90
4934;DHT22;2482;49.154;8.254;2022-10-23T00:34:09;11.20;99.90
4934;DHT22;2482;49.154;8.254;2022-10-23T00:36:36;11.10;99.90
4934;DHT22;2482;49.154;8.254;2022-10-23T00:39:05;11.00;99.90
4934;DHT22;2482;49.154;8.254;2022-10-23T00:41:40;10.90;99.90
4934;DHT22;2482;49.154;8.254;2022-10-23T00:45:10;11.00;99.90
4934;DHT22;2482;49.154;8.254;2022-10-23T00:46:57;11.00;99.90
4934;DHT22;2482;49.154;8.254;2022-10-23T00:49:28;11.10;99.90
4934;DHT22;2482;49.154;8.254;2022-10-23T00:52:06;11.00;99.90
4934;DHT22;2482;49.154;8.254;2022-10-23T00:54:43;11.10;99.90
4934;DHT22;2482;49.154;8.254;2022-10-23T00:57:14;11.10;99.90
4934;DHT22;2482;49.154;8.254;2022-10-23T00:59:42;11.20;99.90
4934;DHT22;2482;49.154;8.254;2022-10-23T01:02:09;11.10;99.90
4934;DHT22;2482;49.154;8.254;2022-10-23T01:04:40;11.00;99.90
4934;DHT22;2482;49.154;8.254;2022-10-23T01:07:31;10.90;99.90
4934;DHT22;2482;49.154;8.254;2022-10-23T01:10:09;11.00;99.90
4934;DHT22;2482;49.154;8.254;2022-10-23T01:13:14;11.00;99.90
4934;DHT22;2482;49.154;8.254;2022-10-23T01:16:11;10.90;99.90
4934;DHT22;2482;49.154;8.254;2022-10-23T01:18:55;10.90;99.90
4934;DHT22;2482;49.154;8.254;2022-10-23T01:27:19;10.90;99.90
4934;DHT22;2482;49.154;8.254;2022-10-23T01:35:19;10.80;99.90
4934;DHT22;2482;49.154;8.254;2022-10-23T01:40:47;10.70;99.90
4934;DHT22;2482;49.154;8.254;2022-10-23T01:46:14;10.90;99.90
4934;DHT22;2482;49.154;8.254;2022-10-23T01:48:46;10.80;99.90
4934;DHT22;2482;49.154;8.254;2022-10-23T01:51:21;10.90;99.90
4934;DHT22;2482;49.154;8.254;2022-10-23T01:53:57;10.90;99.90
4934;DHT22;2482;49.154;8.254;2022-10-23T01:56:28;10.80;99.90
4934;DHT22;2482;49.154;8.254;2022-10-23T01:59:02;10.70;99.90
4934;DHT22;2482;49.154;8.254;2022-10-23T02:01:44;10.40;99.90
4934;DHT22;2482;49.154;8.254;2022-10-23T02:04:16;10.40;99.90
4934;DHT22;2482;49.154;8.254;2022-10-23T02:06:46;10.60;99.90
4934;DHT22;2482;49.154;8.254;2022-10-23T02:09:13;10.60;99.90
4934;DHT22;2482;49.154;8.254;2022-10-23T02:11:52;10.80;99.90
4934;DHT22;2482;49.154;8.254;2022-10-23T02:14:34;10.70;99.90
4934;DHT22;2482;49.154;8.254;2022-10-23T02:17:32;10.90;99.90
4934;DHT22;2482;49.154;8.254;2022-10-23T02:26:56;10.70;99.90
4934;DHT22;2482;49.154;8.254;2022-10-23T02:29:33;10.70;99.90
4934;DHT22;2482;49.154;8.254;2022-10-23T02:32:09;10.70;99.90
4934;DHT22;2482;49.154;8.254;2022-10-23T02:34:37;10.70;99.90
4934;DHT22;2482;49.154;8.254;2022-10-23T02:37:06;10.70;99.90
4934;DHT22;2482;49.154;8.254;2022-10-23T02:39:35;10.70;99.90
4934;DHT22;2482;49.154;8.254;2022-10-23T02:51:34;10.70;99.90
4934;DHT22;2482;49.154;8.254;2022-10-23T02:54:07;10.80;99.90
4934;DHT22;2482;49.154;8.254;2022-10-23T02:57:00;10.80;99.90
4934;DHT22;2482;49.154;8.254;2022-10-23T02:59:51;10.80;99.90
4934;DHT22;2482;49.154;8.254;2022-10-23T03:05:27;10.80;99.90
4934;DHT22;2482;49.154;8.254;2022-10-23T03:07:58;10.70;99.90
4934;DHT22;2482;49.154;8.254;2022-10-23T03:10:25;10.70;99.90
4934;DHT22;2482;49.154;8.254;2022-10-23T03:12:52;10.70;99.90
4934;DHT22;2482;49.154;8.254;2022-10-23T03:15:19;10.60;99.90
4934;DHT22;2482;49.154;8.254;2022-10-23T03:17:51;10.60;99.90
4934;DHT22;2482;49.154;8.254;2022-10-23T03:20:21;10.70;99.90
4934;DHT22;2482;49.154;8.254;2022-10-23T03:22:48;10.70;99.90
4934;DHT22;2482;49.154;8.254;2022-10-23T03:25:15;10.60;99.90
4934;DHT22;2482;49.154;8.254;2022-10-23T03:27:43;10.50;99.90
4934;DHT22;2482;49.154;8.254;2022-10-23T03:30:10;10.60;99.90
4934;DHT22;2482;49.154;8.254;2022-10-23T03:32:37;10.60;99.90
4934;DHT22;2482;49.154;8.254;2022-10-23T03:35:04;10.70;99.90
4934;DHT22;2482;49.154;8.254;2022-10-23T03:37:32;10.70;99.90
4934;DHT22;2482;49.154;8.254;2022-10-23T03:39:59;10.90;99.90
4934;DHT22;2482;49.154;8.254;2022-10-23T03:42:26;11.00;99.90
4934;DHT22;2482;49.154;8.254;2022-10-23T03:44:53;11.00;99.90
4934;DHT22;2482;49.154;8.254;2022-10-23T03:47:23;11.00;99.90
4934;DHT22;2482;49.154;8.254;2022-10-23T03:49:50;11.00;99.90
4934;DHT22;2482;49.154;8.254;2022-10-23T03:52:17;11.00;99.90
4934;DHT22;2482;49.154;8.254;2022-10-23T03:54:45;11.00;99.90
4934;DHT22;2482;49.154;8.254;2022-10-23T03:57:12;11.00;99.90
4934;DHT22;2482;49.154;8.254;2022-10-23T03:59:46;11.00;99.90
4934;DHT22;2482;49.154;8.254;2022-10-23T04:02:13;11.00;99.90
4934;DHT22;2482;49.154;8.254;2022-10-23T04:04:40;11.00;99.90
4934;DHT22;2482;49.154;8.254;2022-10-23T04:07:15;11.00;99.90
4934;DHT22;2482;49.154;8.254;2022-10-23T04:09:41;10.80;99.90
4934;DHT22;2482;49.154;8.254;2022-10-23T04:12:08;10.80;99.90
4934;DHT22;2482;49.154;8.254;2022-10-23T04:14:35;10.90;99.90
4934;DHT22;2482;49.154;8.254;2022-10-23T04:17:03;10.90;99.90
4934;DHT22;2482;49.154;8.254;2022-10-23T04:19:34;11.10;99.90
4934;DHT22;2482;49.154;8.254;2022-10-23T04:22:01;11.20;99.90
4934;DHT22;2482;49.154;8.254;2022-10-23T04:24:28;11.20;99.90
4934;DHT22;2482;49.154;8.254;2022-10-23T04:26:55;11.40;99.90
4934;DHT22;2482;49.154;8.254;2022-10-23T04:29:25;11.40;99.90
4934;DHT22;2482;49.154;8.254;2022-10-23T04:31:52;11.20;99.90
4934;DHT22;2482;49.154;8.254;2022-10-23T04:34:19;11.20;99.90
4934;DHT22;2482;49.154;8.254;2022-10-23T04:36:49;11.10;99.90
4934;DHT22;2482;49.154;8.254;2022-10-23T04:39:17;11.10;99.90
4934;DHT22;2482;49.154;8.254;2022-10-23T04:41:44;11.20;99.90
4934;DHT22;2482;49.154;8.254;2022-10-23T04:44:11;11.20;99.90
4934;DHT22;2482;49.154;8.254;2022-10-23T04:46:40;11.20;99.90
4934;DHT22;2482;49.154;8.254;2022-10-23T04:49:07;11.20;99.90
4934;DHT22;2482;49.154;8.254;2022-10-23T04:51:34;11.30;99.90
4934;DHT22;2482;49.154;8.254;2022-10-23T04:54:00;11.40;99.90
4934;DHT22;2482;49.154;8.254;2022-10-23T04:56:27;11.40;99.90
4934;DHT22;2482;49.154;8.254;2022-10-23T04:58:54;11.50;99.90
4934;DHT22;2482;49.154;8.254;2022-10-23T05:01:21;11.50;99.90
4934;DHT22;2482;49.154;8.254;2022-10-23T05:03:49;11.40;99.90
4934;DHT22;2482;49.154;8.254;2022-10-23T05:06:15;11.20;99.90
4934;DHT22;2482;49.154;8.254;2022-10-23T05:08:42;11.10;99.90
4934;DHT22;2482;49.154;8.254;2022-10-23T05:11:09;11.20;99.90
4934;DHT22;2482;49.154;8.254;2022-10-23T05:13:36;11.20;99.90
4934;DHT22;2482;49.154;8.254;2022-10-23T05:16:03;11.20;99.90
4934;DHT22;2482;49.154;8.254;2022-10-23T05:18:36;11.10;99.90
4934;DHT22;2482;49.154;8.254;2022-10-23T05:21:20;11.20;99.90
4934;DHT22;2482;49.154;8.254;2022-10-23T05:23:53;11.00;99.90
4934;DHT22;2482;49.154;8.254;2022-10-23T05:26:20;11.00;99.90
4934;DHT22;2482;49.154;8.254;2022-10-23T05:28:48;11.00;99.90
4934;DHT22;2482;49.154;8.254;2022-10-23T05:31:18;11.00;99.90
4934;DHT22;2482;49.154;8.254;2022-10-23T05:33:45;10.90;99.90
4934;DHT22;2482;49.154;8.254;2022-10-23T05:36:13;10.90;99.90
4934;DHT22;2482;49.154;8.254;2022-10-23T05:38:40;10.70;99.90
4934;DHT22;2482;49.154;8.254;2022-10-23T05:41:08;10.70;99.90
4934;DHT22;2482;49.154;8.254;2022-10-23T05:43:36;10.80;99.90
4934;DHT22;2482;49.154;8.254;2022-10-23T05:46:04;10.80;99.90
4934;DHT22;2482;49.154;8.254;2022-10-23T05:48:32;10.80;99.90
4934;DHT22;2482;49.154;8.254;2022-10-23T05:51:06;10.80;99.90
4934;DHT22;2482;49.154;8.254;2022-10-23T05:53:34;10.80;99.90
4934;DHT22;2482;49.154;8.254;2022-10-23T05:56:08;10.80;99.90
4934;DHT22;2482;49.154;8.254;2022-10-23T05:58:35;10.70;99.90
4934;DHT22;2482;49.154;8.254;2022-10-23T06:01:08;10.60;99.90
4934;DHT22;2482;49.154;8.254;2022-10-23T06:03:37;10.50;99.90
4934;DHT22;2482;49.154;8.254;2022-10-23T06:06:06;10.40;99.90
4934;DHT22;2482;49.154;8.254;2022-10-23T06:08:34;10.40;99.90
4934;DHT22;2482;49.154;8.254;2022-10-23T06:11:06;10.30;99.90
4934;DHT22;2482;49.154;8.254;2022-10-23T06:13:34;10.40;99.90
4934;DHT22;2482;49.154;8.254;2022-10-23T06:16:13;10.40;99.90
4934;DHT22;2482;49.154;8.254;2022-10-23T06:18:43;10.30;99.90
4934;DHT22;2482;49.154;8.254;2022-10-23T06:21:12;10.20;99.90
4934;DHT22;2482;49.154;8.254;2022-10-23T06:23:40;10.10;99.90
4934;DHT22;2482;49.154;8.254;2022-10-23T06:26:10;10.30;99.90
4934;DHT22;2482;49.154;8.254;2022-10-23T06:28:38;10.30;99.90
4934;DHT22;2482;49.154;8.254;2022-10-23T06:31:07;10.30;99.90
4934;DHT22;2482;49.154;8.254;2022-10-23T06:33:35;10.20;99.90
4934;DHT22;2482;49.154;8.254;2022-10-23T06:36:03;10.30;99.90
4934;DHT22;2482;49.154;8.254;2022-10-23T06:38:31;10.30;99.90
4934;DHT22;2482;49.154;8.254;2022-10-23T06:41:06;10.30;99.90
4934;DHT22;2482;49.154;8.254;2022-10-23T06:43:34;10.40;99.90
4934;DHT22;2482;49.154;8.254;2022-10-23T06:46:02;10.30;99.90
4934;DHT22;2482;49.154;8.254;2022-10-23T06:48:31;10.40;99.90
4934;DHT22;2482;49.154;8.254;2022-10-23T06:51:02;10.50;99.90
4934;DHT22;2482;49.154;8.254;2022-10-23T06:53:31;10.70;99.90
4934;DHT22;2482;49.154;8.254;2022-10-23T06:56:00;10.70;99.90
4934;DHT22;2482;49.154;8.254;2022-10-23T06:58:31;10.80;99.90
4934;DHT22;2482;49.154;8.254;2022-10-23T07:01:08;10.90;99.90
4934;DHT22;2482;49.154;8.254;2022-10-23T07:03:36;11.00;99.90
4934;DHT22;2482;49.154;8.254;2022-10-23T07:06:06;11.10;99.90
4934;DHT22;2482;49.154;8.254;2022-10-23T07:08:34;11.20;99.90
4934;DHT22;2482;49.154;8.254;2022-10-23T07:11:04;11.20;99.90
4934;DHT22;2482;49.154;8.254;2022-10-23T07:13:36;11.20;99.90
4934;DHT22;2482;49.154;8.254;2022-10-23T07:16:19;11.20;99.90
4934;DHT22;2482;49.154;8.254;2022-10-23T07:18:48;11.30;99.90
4934;DHT22;2482;49.154;8.254;2022-10-23T07:21:19;11.40;99.90
4934;DHT22;2482;49.154;8.254;2022-10-23T07:23:46;11.60;99.90
4934;DHT22;2482;49.154;8.254;2022-10-23T07:26:15;11.70;99.90
4934;DHT22;2482;49.154;8.254;2022-10-23T07:28:44;11.80;99.90
4934;DHT22;2482;49.154;8.254;2022-10-23T07:31:13;11.80;99.90
4934;DHT22;2482;49.154;8.254;2022-10-23T07:33:40;11.90;99.90
4934;DHT22;2482;49.154;8.254;2022-10-23T07:36:08;12.00;99.90
4934;DHT22;2482;49.154;8.254;2022-10-23T07:38:35;12.20;99.90
4934;DHT22;2482;49.154;8.254;2022-10-23T07:41:02;12.30;99.90
4934;DHT22;2482;49.154;8.254;2022-10-23T07:43:30;12.40;99.90
4934;DHT22;2482;49.154;8.254;2022-10-23T07:46:02;12.40;99.90
4934;DHT22;2482;49.154;8.254;2022-10-23T07:48:30;12.30;99.90
4934;DHT22;2482;49.154;8.254;2022-10-23T07:51:00;12.40;99.90
4934;DHT22;2482;49.154;8.254;2022-10-23T07:53:29;12.50;99.90
4934;DHT22;2482;49.154;8.254;2022-10-23T07:56:00;12.60;99.90
4934;DHT22;2482;49.154;8.254;2022-10-23T07:58:29;12.80;99.90
4934;DHT22;2482;49.154;8.254;2022-10-23T08:00:59;12.90;99.90
4934;DHT22;2482;49.154;8.254;2022-10-23T08:03:32;13.00;99.90
4934;DHT22;2482;49.154;8.254;2022-10-23T08:05:59;13.10;99.90
4934;DHT22;2482;49.154;8.254;2022-10-23T08:08:26;13.20;99.90
4934;DHT22;2482;49.154;8.254;2022-10-23T08:10:54;13.30;99.90
4934;DHT22;2482;49.154;8.254;2022-10-23T08:13:22;13.30;99.90
4934;DHT22;2482;49.154;8.254;2022-10-23T08:15:50;13.40;99.90
4934;DHT22;2482;49.154;8.254;2022-10-23T08:18:18;13.60;99.90
4934;DHT22;2482;49.154;8.254;2022-10-23T08:20:47;13.60;99.90
4934;DHT22;2482;49.154;8.254;2022-10-23T08:23:18;13.70;99.90
4934;DHT22;2482;49.154;8.254;2022-10-23T08:26:01;13.80;99.90
4934;DHT22;2482;49.154;8.254;2022-10-23T08:28:32;14.00;99.90
4934;DHT22;2482;49.154;8.254;2022-10-23T08:31:09;14.20;99.90
4934;DHT22;2482;49.154;8.254;2022-10-23T08:33:38;14.20;99.90
4934;DHT22;2482;49.154;8.254;2022-10-23T08:36:24;14.30;99.90
4934;DHT22;2482;49.154;8.254;2022-10-23T08:38:57;14.40;99.90
4934;DHT22;2482;49.154;8.254;2022-10-23T08:41:42;14.40;99.90
4934;DHT22;2482;49.154;8.254;2022-10-23T08:44:22;14.60;99.90
4934;DHT22;2482;49.154;8.254;2022-10-23T08:47:27;14.80;99.90
4934;DHT22;2482;49.154;8.254;2022-10-23T08:50:01;15.00;99.90
4934;DHT22;2482;49.154;8.254;2022-10-23T08:52:49;15.20;99.90
4934;DHT22;2482;49.154;8.254;2022-10-23T08:55:23;15.30;99.90
4934;DHT22;2482;49.154;8.254;2022-10-23T09:00:41;15.60;99.90
4934;DHT22;2482;49.154;8.254;2022-10-23T09:03:11;15.80;99.90
4934;DHT22;2482;49.154;8.254;2022-10-23T09:08:55;16.00;99.90
4934;DHT22;2482;49.154;8.254;2022-10-23T09:15:04;16.20;99.90
4934;DHT22;2482;49.154;8.254;2022-10-23T09:17:43;16.30;99.90
4934;DHT22;2482;49.154;8.254;2022-10-23T09:20:22;16.40;99.90
4934;DHT22;2482;49.154;8.254;2022-10-23T09:23:00;16.50;99.90
4934;DHT22;2482;49.154;8.254;2022-10-23T09:25:33;16.40;99.90
4934;DHT22;2482;49.154;8.254;2022-10-23T09:28:03;16.70;99.90
4934;DHT22;2482;49.154;8.254;2022-10-23T09:30:40;16.90;99.90
4934;DHT22;2482;49.154;8.254;2022-10-23T09:33:25;17.10;99.90
4934;DHT22;2482;49.154;8.254;2022-10-23T09:36:20;17.20;99.90
4934;DHT22;2482;49.154;8.254;2022-10-23T09:38:52;17.00;99.90
4934;DHT22;2482;49.154;8.254;2022-10-23T09:41:39;17.40;99.90
4934;DHT22;2482;49.154;8.254;2022-10-23T09:47:08;17.20;99.90
4934;DHT22;2482;49.154;8.254;2022-10-23T09:49:39;17.30;99.90
4934;DHT22;2482;49.154;8.254;2022-10-23T09:54:55;17.40;99.90
4934;DHT22;2482;49.154;8.254;2022-10-23T10:00:01;17.20;99.90
4934;DHT22;2482;49.154;8.254;2022-10-23T10:02:34;17.20;99.90
4934;DHT22;2482;49.154;8.254;2022-10-23T10:05:24;17.30;99.90
4934;DHT22;2482;49.154;8.254;2022-10-23T10:10:38;17.60;99.90
4934;DHT22;2482;49.154;8.254;2022-10-23T10:16:18;18.20;99.90
4934;DHT22;2482;49.154;8.254;2022-10-23T10:18:57;18.10;99.90
4934;DHT22;2482;49.154;8.254;2022-10-23T10:21:43;18.20;99.90
4934;DHT22;2482;49.154;8.254;2022-10-23T10:30:21;18.60;99.90
4934;DHT22;2482;49.154;8.254;2022-10-23T10:33:00;18.60;99.90
4934;DHT22;2482;49.154;8.254;2022-10-23T10:35:58;18.40;99.90
4934;DHT22;2482;49.154;8.254;2022-10-23T10:38:49;18.20;99.90
4934;DHT22;2482;49.154;8.254;2022-10-23T10:44:46;18.10;99.90
4934;DHT22;2482;49.154;8.254;2022-10-23T10:53:41;19.30;99.90
4934;DHT22;2482;49.154;8.254;2022-10-23T10:56:15;19.40;99.90
4934;DHT22;2482;49.154;8.254;2022-10-23T11:01:44;19.50;99.90
4934;DHT22;2482;49.154;8.254;2022-10-23T11:04:46;19.60;99.90
4934;DHT22;2482;49.154;8.254;2022-10-23T11:07:37;19.50;99.90
4934;DHT22;2482;49.154;8.254;2022-10-23T11:10:16;19.40;99.90
4934;DHT22;2482;49.154;8.254;2022-10-23T11:12:45;19.50;99.90
4934;DHT22;2482;49.154;8.254;2022-10-23T11:15:15;19.30;99.90
4934;DHT22;2482;49.154;8.254;2022-10-23T11:17:52;19.60;99.90
4934;DHT22;2482;49.154;8.254;2022-10-23T11:20:44;19.70;99.90
4934;DHT22;2482;49.154;8.254;2022-10-23T11:38:53;19.10;99.90
4934;DHT22;2482;49.154;8.254;2022-10-23T11:41:26;19.10;99.90
4934;DHT22;2482;49.154;8.254;2022-10-23T11:44:00;19.00;99.90
4934;DHT22;2482;49.154;8.254;2022-10-23T11:48:58;19.40;99.90
4934;DHT22;2482;49.154;8.254;2022-10-23T11:51:39;19.80;99.90
4934;DHT22;2482;49.154;8.254;2022-10-23T11:56:38;19.60;99.90
4934;DHT22;2482;49.154;8.254;2022-10-23T11:59:29;19.40;99.90
4934;DHT22;2482;49.154;8.254;2022-10-23T12:02:00;19.10;99.90
4934;DHT22;2482;49.154;8.254;2022-10-23T12:04:39;19.30;99.90
4934;DHT22;2482;49.154;8.254;2022-10-23T12:10:01;19.50;99.90
4934;DHT22;2482;49.154;8.254;2022-10-23T12:12:37;19.40;99.90
4934;DHT22;2482;49.154;8.254;2022-10-23T12:17:42;19.60;99.90
4934;DHT22;2482;49.154;8.254;2022-10-23T12:22:49;19.90;99.90
4934;DHT22;2482;49.154;8.254;2022-10-23T12:39:51;20.70;99.90
4934;DHT22;2482;49.154;8.254;2022-10-23T12:42:22;21.00;99.90
4934;DHT22;2482;49.154;8.254;2022-10-23T12:45:01;20.80;99.90
4934;DHT22;2482;49.154;8.254;2022-10-23T12:47:31;20.70;99.90
4934;DHT22;2482;49.154;8.254;2022-10-23T12:49:58;20.30;99.90
4934;DHT22;2482;49.154;8.254;2022-10-23T12:52:25;20.30;99.90
4934;DHT22;2482;49.154;8.254;2022-10-23T12:54:52;20.20;99.90
4934;DHT22;2482;49.154;8.254;2022-10-23T12:57:22;20.30;99.90
4934;DHT22;2482;49.154;8.254;2022-10-23T13:00:02;20.40;99.90
4934;DHT22;2482;49.154;8.254;2022-10-23T13:02:36;20.40;99.90
4934;DHT22;2482;49.154;8.254;2022-10-23T13:05:07;20.40;99.90
4934;DHT22;2482;49.154;8.254;2022-10-23T13:07:45;20.00;99.90
4934;DHT22;2482;49.154;8.254;2022-10-23T13:10:15;19.90;99.90
4934;DHT22;2482;49.154;8.254;2022-10-23T13:12:54;19.80;99.90
4934;DHT22;2482;49.154;8.254;2022-10-23T13:15:24;19.70;99.90
4934;DHT22;2482;49.154;8.254;2022-10-23T13:20:20;19.80;99.90
4934;DHT22;2482;49.154;8.254;2022-10-23T13:25:35;20.00;99.90
4934;DHT22;2482;49.154;8.254;2022-10-23T13:33:39;20.20;99.90
4934;DHT22;2482;49.154;8.254;2022-10-23T13:38:42;20.30;99.90
4934;DHT22;2482;49.154;8.254;2022-10-23T13:41:16;20.10;99.90
4934;DHT22;2482;49.154;8.254;2022-10-23T13:43:47;20.00;99.90
4934;DHT22;2482;49.154;8.254;2022-10-23T13:46:19;19.80;99.90
4934;DHT22;2482;49.154;8.254;2022-10-23T13:48:47;19.90;99.90
4934;DHT22;2482;49.154;8.254;2022-10-23T13:51:20;20.20;99.90
4934;DHT22;2482;49.154;8.254;2022-10-23T13:53:49;20.10;99.90
4934;DHT22;2482;49.154;8.254;2022-10-23T13:56:18;20.10;99.90
4934;DHT22;2482;49.154;8.254;2022-10-23T13:58:47;20.10;99.90
4934;DHT22;2482;49.154;8.254;2022-10-23T14:01:29;20.10;99.90
4934;DHT22;2482;49.154;8.254;2022-10-23T14:03:59;20.10;99.90
4934;DHT22;2482;49.154;8.254;2022-10-23T14:06:26;20.00;99.90
4934;DHT22;2482;49.154;8.254;2022-10-23T14:08:53;19.70;99.90
4934;DHT22;2482;49.154;8.254;2022-10-23T14:11:19;19.60;99.90
4934;DHT22;2482;49.154;8.254;2022-10-23T14:13:48;19.70;99.90
4934;DHT22;2482;49.154;8.254;2022-10-23T14:16:16;19.70;99.90
4934;DHT22;2482;49.154;8.254;2022-10-23T14:18:45;19.70;99.90
4934;DHT22;2482;49.154;8.254;2022-10-23T14:21:15;19.70;99.90
4934;DHT22;2482;49.154;8.254;2022-10-23T14:23:43;19.70;99.90
4934;DHT22;2482;49.154;8.254;2022-10-23T14:26:13;19.70;99.90
4934;DHT22;2482;49.154;8.254;2022-10-23T14:28:41;19.70;99.90
4934;DHT22;2482;49.154;8.254;2022-10-23T14:31:14;19.80;99.90
4934;DHT22;2482;49.154;8.254;2022-10-23T14:33:43;19.90;99.90
4934;DHT22;2482;49.154;8.254;2022-10-23T14:36:11;20.00;99.90
4934;DHT22;2482;49.154;8.254;2022-10-23T14:38:38;20.00;99.90
4934;DHT22;2482;49.154;8.254;2022-10-23T14:41:13;20.00;99.90
4934;DHT22;2482;49.154;8.254;2022-10-23T14:43:41;20.00;99.90
4934;DHT22;2482;49.154;8.254;2022-10-23T14:46:13;19.80;99.90
4934;DHT22;2482;49.154;8.254;2022-10-23T14:48:42;19.70;99.90
4934;DHT22;2482;49.154;8.254;2022-10-23T14:53:46;19.70;99.90
4934;DHT22;2482;49.154;8.254;2022-10-23T14:56:14;19.70;99.90
4934;DHT22;2482;49.154;8.254;2022-10-23T14:58:41;19.80;99.90
4934;DHT22;2482;49.154;8.254;2022-10-23T15:01:09;19.80;99.90
4934;DHT22;2482;49.154;8.254;2022-10-23T15:03:36;19.60;99.90
4934;DHT22;2482;49.154;8.254;2022-10-23T15:06:05;19.60;99.90
4934;DHT22;2482;49.154;8.254;2022-10-23T15:08:34;19.60;99.90
4934;DHT22;2482;49.154;8.254;2022-10-23T15:11:03;19.50;99.90
4934;DHT22;2482;49.154;8.254;2022-10-23T15:13:34;19.50;99.90
4934;DHT22;2482;49.154;8.254;2022-10-23T15:16:07;19.30;99.90
4934;DHT22;2482;49.154;8.254;2022-10-23T15:18:35;19.40;99.90
4934;DHT22;2482;49.154;8.254;2022-10-23T15:21:08;19.30;99.90
4934;DHT22;2482;49.154;8.254;2022-10-23T15:23:38;19.20;99.90
4934;DHT22;2482;49.154;8.254;2022-10-23T15:26:09;19.20;99.90
4934;DHT22;2482;49.154;8.254;2022-10-23T15:28:38;19.20;99.90
4934;DHT22;2482;49.154;8.254;2022-10-23T15:31:05;19.10;99.90
4934;DHT22;2482;49.154;8.254;2022-10-23T15:33:32;19.10;99.90
4934;DHT22;2482;49.154;8.254;2022-10-23T15:35:59;19.10;99.90
4934;DHT22;2482;49.154;8.254;2022-10-23T15:38:26;19.00;99.90
4934;DHT22;2482;49.154;8.254;2022-10-23T15:40:57;18.90;99.90
4934;DHT22;2482;49.154;8.254;2022-10-23T15:43:30;18.80;99.90
4934;DHT22;2482;49.154;8.254;2022-10-23T15:45:57;18.60;99.90
4934;DHT22;2482;49.154;8.254;2022-10-23T15:48:23;18.50;99.90
4934;DHT22;2482;49.154;8.254;2022-10-23T15:50:50;18.50;99.90
4934;DHT22;2482;49.154;8.254;2022-10-23T15:53:17;18.50;99.90
4934;DHT22;2482;49.154;8.254;2022-10-23T15:55:45;18.50;99.90
4934;DHT22;2482;49.154;8.254;2022-10-23T15:58:12;18.60;99.90
4934;DHT22;2482;49.154;8.254;2022-10-23T16:00:39;18.60;99.90
4934;DHT22;2482;49.154;8.254;2022-10-23T16:03:06;18.60;99.90
4934;DHT22;2482;49.154;8.254;2022-10-23T16:05:35;18.50;99.90
4934;DHT22;2482;49.154;8.254;2022-10-23T16:08:02;18.50;99.90
4934;DHT22;2482;49.154;8.254;2022-10-23T16:10:29;18.30;99.90
4934;DHT22;2482;49.154;8.254;2022-10-23T16:12:56;18.10;99.90
4934;DHT22;2482;49.154;8.254;2022-10-23T16:15:23;18.00;99.90
4934;DHT22;2482;49.154;8.254;2022-10-23T16:17:50;17.90;99.90
4934;DHT22;2482;49.154;8.254;2022-10-23T16:20:17;17.80;99.90
4934;DHT22;2482;49.154;8.254;2022-10-23T16:22:45;17.70;99.90
4934;DHT22;2482;49.154;8.254;2022-10-23T16:25:12;17.60;99.90
4934;DHT22;2482;49.154;8.254;2022-10-23T16:27:39;17.50;99.90
4934;DHT22;2482;49.154;8.254;2022-10-23T16:30:07;17.50;99.90
4934;DHT22;2482;49.154;8.254;2022-10-23T16:32:34;17.50;99.90
4934;DHT22;2482;49.154;8.254;2022-10-23T16:35:02;17.50;99.90
4934;DHT22;2482;49.154;8.254;2022-10-23T16:37:29;17.50;99.90
4934;DHT22;2482;49.154;8.254;2022-10-23T16:39:56;17.30;99.90
4934;DHT22;2482;49.154;8.254;2022-10-23T16:42:24;17.40;99.90
4934;DHT22;2482;49.154;8.254;2022-10-23T16:44:51;17.50;99.90
4934;DHT22;2482;49.154;8.254;2022-10-23T16:47:18;17.40;99.90
4934;DHT22;2482;49.154;8.254;2022-10-23T16:49:45;17.40;99.90
4934;DHT22;2482;49.154;8.254;2022-10-23T16:52:12;17.30;99.90
4934;DHT22;2482;49.154;8.254;2022-10-23T16:54:41;17.20;99.90
4934;DHT22;2482;49.154;8.254;2022-10-23T16:57:08;17.20;99.90
4934;DHT22;2482;49.154;8.254;2022-10-23T16:59:35;17.20;99.90
4934;DHT22;2482;49.154;8.254;2022-10-23T17:02:02;17.40;99.90
4934;DHT22;2482;49.154;8.254;2022-10-23T17:04:29;17.50;99.90
4934;DHT22;2482;49.154;8.254;2022-10-23T17:06:56;17.40;99.90
4934;DHT22;2482;49.154;8.254;2022-10-23T17:09:23;17.50;99.90
4934;DHT22;2482;49.154;8.254;2022-10-23T17:11:53;17.50;99.90
4934;DHT22;2482;49.154;8.254;2022-10-23T17:14:20;17.40;99.90
4934;DHT22;2482;49.154;8.254;2022-10-23T17:16:51;17.40;99.90
4934;DHT22;2482;49.154;8.254;2022-10-23T17:19:21;17.50;99.90
4934;DHT22;2482;49.154;8.254;2022-10-23T17:22:10;17.50;99.90
4934;DHT22;2482;49.154;8.254;2022-10-23T17:24:40;17.40;99.90
4934;DHT22;2482;49.154;8.254;2022-10-23T17:27:08;17.30;99.90
4934;DHT22;2482;49.154;8.254;2022-10-23T17:29:35;17.10;99.90
4934;DHT22;2482;49.154;8.254;2022-10-23T17:32:02;17.00;99.90
4934;DHT22;2482;49.154;8.254;2022-10-23T17:34:29;16.90;99.90
4934;DHT22;2482;49.154;8.254;2022-10-23T17:36:56;16.90;99.90
4934;DHT22;2482;49.154;8.254;2022-10-23T17:39:28;16.90;99.90
4934;DHT22;2482;49.154;8.254;2022-10-23T17:41:56;16.90;99.90
4934;DHT22;2482;49.154;8.254;2022-10-23T17:44:27;16.90;99.90
4934;DHT22;2482;49.154;8.254;2022-10-23T17:46:54;16.90;99.90
4934;DHT22;2482;49.154;8.254;2022-10-23T17:49:22;16.90;99.90
4934;DHT22;2482;49.154;8.254;2022-10-23T17:51:54;17.00;99.90
4934;DHT22;2482;49.154;8.254;2022-10-23T17:54:23;17.00;99.90
4934;DHT22;2482;49.154;8.254;2022-10-23T17:56:51;17.10;99.90
4934;DHT22;2482;49.154;8.254;2022-10-23T17:59:18;17.10;99.90
4934;DHT22;2482;49.154;8.254;2022-10-23T18:01:45;17.10;99.90
4934;DHT22;2482;49.154;8.254;2022-10-23T18:04:18;17.00;99.90
4934;DHT22;2482;49.154;8.254;2022-10-23T18:06:48;17.00;99.90
4934;DHT22;2482;49.154;8.254;2022-10-23T18:09:17;17.00;99.90
4934;DHT22;2482;49.154;8.254;2022-10-23T18:11:45;17.00;99.90
4934;DHT22;2482;49.154;8.254;2022-10-23T18:14:16;16.90;99.90
4934;DHT22;2482;49.154;8.254;2022-10-23T18:16:43;16.90;99.90
4934;DHT22;2482;49.154;8.254;2022-10-23T18:19:12;16.90;99.90
4934;DHT22;2482;49.154;8.254;2022-10-23T18:21:40;16.90;99.90
4934;DHT22;2482;49.154;8.254;2022-10-23T18:24:07;17.00;99.90
4934;DHT22;2482;49.154;8.254;2022-10-23T18:26:35;16.90;99.90
4934;DHT22;2482;49.154;8.254;2022-10-23T18:29:05;17.00;99.90
4934;DHT22;2482;49.154;8.254;2022-10-23T18:31:36;16.90;99.90
4934;DHT22;2482;49.154;8.254;2022-10-23T18:34:07;16.90;99.90
4934;DHT22;2482;49.154;8.254;2022-10-23T18:36:38;16.90;99.90
4934;DHT22;2482;49.154;8.254;2022-10-23T18:39:08;16.90;99.90
4934;DHT22;2482;49.154;8.254;2022-10-23T18:41:39;16.90;99.90
4934;DHT22;2482;49.154;8.254;2022-10-23T18:44:09;16.80;99.90
4934;DHT22;2482;49.154;8.254;2022-10-23T18:46:37;16.80;99.90